Aviation Digital Data Service (ADDS)

Output produced by METARs form (2021 UTC 18 February 2018)
found at http://aviationweather.gov/adds/metars/
 
KART 181735Z 1818/1918 25010KT P6SM BKN050 
     FM182200 21005KT P6SM SCT050 
     FM190200 15006KT P6SM SCT250 
     FM191100 18014G20KT P6SM BKN250 
     FM191600 18016G24KT P6SM BKN100